Glacier National Park, MT

10:55 PM MDT on August 29, 2016 (GMT -0600)
Cut Bank Municipal | | Change Station

Elev 3855 ft 48.61 °N, 112.38 °W | Updated 59 minutes ago

Partly Cloudy
Partly Cloudy
75 °F
Feels Like 75 °F
N
8
Wind Variable Wind from East

Today
High -- | Low -- °F
--% Chance of Precip.
Yesterday
High -- | Low -- °F
Precip. -- in
Pressure 30.05 in
Visibility 10.0 miles
Clouds Few 10000 ft
Dew Point 40 °F
Humidity 28%
Rainfall 0.00 in
Snow Depth Not available.
6:47 AM 8:20 PM
Waning Crescent, 5% visible
METAR KCTB 300356Z AUTO 10007KT 10SM FEW100 24/04 A3013 RMK AO2 PK WND 27026/0323 WSHFT 0315 LTG DSNT N SLP176 T02390044
Pressure 30.05 in
Visibility 10.0 miles
Clouds Few 10000 ft
Dew Point 40 °F
Humidity 28%
Rainfall 0.00 in
Snow Depth Not available.
6:47 AM 8:20 PM
Waning Crescent, 5% visible
METAR KCTB 300356Z AUTO 10007KT 10SM FEW100 24/04 A3013 RMK AO2 PK WND 27026/0323 WSHFT 0315 LTG DSNT N SLP176 T02390044

10-Day Weather Forecast

Almanac

Astronomy

Aug. 29, 2016 Rise Set
Actual Time
Civil Twilight
Nautical Twilight
Astronomical Twilight
Moon
Length of Visible Light
Length of Day
Tomorrow will be .
, % of the Moon is Illuminated

Today's Extremes

State Highs State Lows

Community

WunderPhotos

Upload Photos

1,935,791 photos uploaded!

WunderBlog® & News

Nearby

Air Quality

  Air Quality AQ Index Pollutant
Not available.

Snow Depth

Station Depth Elevation

Earthquake Activity

City Distance Mag. Time & Date
Minimum magnitude displayed is 2.5.

Coastal Water Temperatures

Place Temperature

Stations

Nearby Weather Stations

Station Location Temp. Windchill Dew Point Humidity Wind Precip. Elev Updated Type
                   

Watches & Warnings

Air Quality Alert
Issued: National Weather Service
quality at www.Todaysair.Mt.Gov.